createdAt,value
2022-11-20T00:00:11.056Z,99602.62
2022-11-20T00:01:11.059Z,99602.88
2022-11-20T00:02:11.122Z,99599.50
2022-11-20T00:03:11.057Z,99599.82
2022-11-20T00:04:11.053Z,99596.51
2022-11-20T00:05:11.066Z,99593.54
2022-11-20T00:06:12.059Z,99589.69
2022-11-20T00:07:11.125Z,99591.73
2022-11-20T00:08:11.063Z,99590.86
2022-11-20T00:09:12.057Z,99588.79
2022-11-20T00:10:11.054Z,99586.12
2022-11-20T00:11:15.552Z,99585.54
2022-11-20T00:12:13.365Z,99588.45
2022-11-20T00:13:11.054Z,99587.55
2022-11-20T00:14:12.062Z,99582.91
2022-11-20T00:15:11.067Z,99583.14
2022-11-20T00:16:11.055Z,99584.68
2022-11-20T00:17:11.061Z,99584.13
2022-11-20T00:18:11.064Z,99587.67
2022-11-20T00:19:11.056Z,99583.82
2022-11-20T00:20:11.060Z,99586.70
2022-11-20T00:21:13.066Z,99586.77
2022-11-20T00:22:11.060Z,99584.26
2022-11-20T00:23:11.054Z,99578.73
2022-11-20T00:24:13.057Z,99580.00
2022-11-20T00:25:11.059Z,99575.72
2022-11-20T00:26:11.057Z,99571.64
2022-11-20T00:27:11.057Z,99571.17
2022-11-20T00:28:11.062Z,99570.06
2022-11-20T00:29:11.060Z,99572.11
2022-11-20T00:30:12.376Z,99566.89
2022-11-20T00:31:14.067Z,99564.90
2022-11-20T00:32:11.063Z,99564.13
2022-11-20T00:33:11.058Z,99565.48
2022-11-20T00:34:11.067Z,99569.41
2022-11-20T00:35:11.059Z,99567.80
2022-11-20T00:36:15.062Z,99570.27
2022-11-20T00:37:11.065Z,99568.57
2022-11-20T00:38:11.060Z,99565.25
2022-11-20T00:39:11.068Z,99566.08
2022-11-20T00:40:11.060Z,99564.86
2022-11-20T00:41:11.069Z,99560.33
2022-11-20T00:42:11.059Z,99561.82
2022-11-20T00:43:11.065Z,99555.81
2022-11-20T00:44:11.067Z,99555.55
2022-11-20T00:45:11.059Z,99552.40
2022-11-20T00:46:11.063Z,99557.15
2022-11-20T00:47:11.068Z,99554.82
2022-11-20T00:48:11.060Z,99559.72
2022-11-20T00:49:11.057Z,99556.54
2022-11-20T00:50:11.064Z,99558.44
2022-11-20T00:51:11.063Z,99554.09
2022-11-20T00:52:11.056Z,99554.81
2022-11-20T00:53:11.069Z,99552.63
2022-11-20T00:54:11.062Z,99553.66
2022-11-20T00:55:11.062Z,99551.11
2022-11-20T00:56:12.064Z,99547.25
2022-11-20T00:57:11.062Z,99547.56
2022-11-20T00:58:14.308Z,99549.34
2022-11-20T00:59:11.061Z,99547.90
2022-11-20T01:00:11.063Z,99547.19
2022-11-20T01:01:17.170Z,99542.00
2022-11-20T01:02:11.063Z,99540.43
2022-11-20T01:03:11.064Z,99538.65
2022-11-20T01:04:11.062Z,99538.37
2022-11-20T01:05:11.062Z,99536.13
2022-11-20T01:06:15.073Z,99537.27
2022-11-20T01:07:11.130Z,99531.52
2022-11-20T01:08:11.065Z,99528.84
2022-11-20T01:09:14.070Z,99528.40
2022-11-20T01:10:11.070Z,99524.23
2022-11-20T01:11:14.060Z,99521.55
2022-11-20T01:12:11.062Z,99521.08
2022-11-20T01:13:15.065Z,99518.07
2022-11-20T01:14:15.058Z,99518.91
2022-11-20T01:15:11.065Z,99518.52
2022-11-20T01:16:19.077Z,99517.85
2022-11-20T01:17:11.065Z,99516.27
2022-11-20T01:18:11.062Z,99511.29
2022-11-20T01:19:17.299Z,99511.01
2022-11-20T01:20:11.063Z,99510.32
2022-11-20T01:21:11.061Z,99507.66
2022-11-20T01:22:11.066Z,99506.82
2022-11-20T01:23:11.073Z,99499.50
2022-11-20T01:24:14.063Z,99497.04
2022-11-20T01:25:11.063Z,99490.87
2022-11-20T01:26:11.065Z,99491.91
2022-11-20T01:27:11.060Z,99491.05
2022-11-20T01:28:11.064Z,99487.10
2022-11-20T01:29:15.072Z,99478.71
2022-11-20T01:30:11.069Z,99479.03
2022-11-20T01:31:17.065Z,99472.71
2022-11-20T01:32:11.062Z,99467.55
2022-11-20T01:33:11.064Z,99464.41
2022-11-20T01:34:13.065Z,99463.31
2022-11-20T01:35:11.067Z,99457.64
2022-11-20T01:36:11.063Z,99453.73
2022-11-20T01:37:11.061Z,99455.59
2022-11-20T01:38:11.068Z,99453.46
2022-11-20T01:39:21.412Z,99451.62
2022-11-20T01:40:11.065Z,99452.84
2022-11-20T01:41:11.070Z,99450.42
2022-11-20T01:42:15.087Z,99450.42
2022-11-20T01:43:19.065Z,99451.42
2022-11-20T01:44:12.071Z,99453.36
2022-11-20T01:45:19.066Z,99447.23
2022-11-20T01:46:15.068Z,99447.89
2022-11-20T01:47:14.068Z,99446.05
2022-11-20T01:48:11.062Z,99440.39
2022-11-20T01:49:20.513Z,99438.13
2022-11-20T01:50:19.081Z,99432.49
2022-11-20T01:51:19.067Z,99431.01
2022-11-20T01:52:16.066Z,99429.71
2022-11-20T01:53:13.067Z,99426.84
2022-11-20T01:54:13.071Z,99428.94
2022-11-20T01:55:13.066Z,99422.70
2022-11-20T01:56:12.065Z,99422.61
2022-11-20T01:57:12.065Z,99417.92
2022-11-20T01:58:11.066Z,99413.09
2022-11-20T01:59:11.081Z,99413.19
2022-11-20T02:00:14.065Z,99408.78
2022-11-20T02:01:11.136Z,99405.51
2022-11-20T02:02:11.065Z,99408.54
2022-11-20T02:03:13.066Z,99405.48
2022-11-20T02:04:11.074Z,99404.49
2022-11-20T02:05:19.067Z,99403.73
2022-11-20T02:06:17.069Z,99403.84
2022-11-20T02:07:11.083Z,99396.61
2022-11-20T02:08:11.069Z,99403.64
2022-11-20T02:09:11.065Z,99402.61
2022-11-20T02:10:11.065Z,99407.72
2022-11-20T02:11:11.068Z,99405.36
2022-11-20T02:12:11.065Z,99403.54
2022-11-20T02:13:15.066Z,99403.06
2022-11-20T02:14:11.074Z,99400.72
2022-11-20T02:15:11.068Z,99398.87
2022-11-20T02:16:17.071Z,99394.65
2022-11-20T02:17:11.071Z,99395.48
2022-11-20T02:18:11.069Z,99393.02
2022-11-20T02:19:16.069Z,99393.75
2022-11-20T02:20:11.067Z,99391.20
2022-11-20T02:21:16.070Z,99389.79
2022-11-20T02:22:20.064Z,99388.33
2022-11-20T02:23:19.117Z,99385.27
2022-11-20T02:24:13.071Z,99381.39
2022-11-20T02:25:11.070Z,99381.93
2022-11-20T02:26:15.067Z,99376.48
2022-11-20T02:27:14.071Z,99372.42
2022-11-20T02:28:11.068Z,99371.60
2022-11-20T02:29:11.070Z,99368.71
2022-11-20T02:30:12.070Z,99369.97
2022-11-20T02:31:11.071Z,99367.14
2022-11-20T02:32:19.068Z,99365.16
2022-11-20T02:33:11.066Z,99360.51
2022-11-20T02:34:11.077Z,99357.27
2022-11-20T02:35:19.071Z,99355.33
2022-11-20T02:36:12.068Z,99347.56
2022-11-20T02:37:11.069Z,99348.66
2022-11-20T02:38:11.070Z,99345.81
2022-11-20T02:39:12.068Z,99346.36
2022-11-20T02:40:11.066Z,99341.76
2022-11-20T02:41:11.071Z,99341.71
2022-11-20T02:42:11.069Z,99337.37
2022-11-20T02:43:11.070Z,99338.38
2022-11-20T02:44:11.070Z,99338.12
2022-11-20T02:45:11.072Z,99336.33
2022-11-20T02:46:11.070Z,99333.23
2022-11-20T02:47:11.071Z,99329.66
2022-11-20T02:48:11.057Z,99332.60
2022-11-20T02:49:11.059Z,99331.23
2022-11-20T02:50:11.061Z,99331.89
2022-11-20T02:51:11.059Z,99333.51
2022-11-20T02:52:11.059Z,99334.55
2022-11-20T02:53:11.068Z,99331.84
2022-11-20T02:54:11.056Z,99329.46
2022-11-20T02:55:11.060Z,99324.68
2022-11-20T02:56:11.068Z,99326.59
2022-11-20T02:57:11.057Z,99319.19
2022-11-20T02:58:11.062Z,99324.09
2022-11-20T02:59:11.067Z,99324.96
2022-11-20T03:00:11.057Z,99324.31
2022-11-20T03:01:11.120Z,99327.21
2022-11-20T03:02:11.068Z,99327.21
2022-11-20T03:03:11.061Z,99323.58
2022-11-20T03:04:11.061Z,99321.90
2022-11-20T03:05:11.069Z,99325.93
2022-11-20T03:06:11.058Z,99322.18
2022-11-20T03:07:11.158Z,99323.64
2022-11-20T03:08:11.067Z,99322.59
2022-11-20T03:09:11.059Z,99320.45
2022-11-20T03:10:11.059Z,99316.81
2022-11-20T03:11:11.062Z,99313.50
2022-11-20T03:12:11.060Z,99311.10
2022-11-20T03:13:11.060Z,99310.95
2022-11-20T03:14:11.062Z,99312.31
2022-11-20T03:15:11.061Z,99308.50
2022-11-20T03:16:11.061Z,99304.04
2022-11-20T03:17:11.068Z,99302.47
2022-11-20T03:18:11.061Z,99296.08
2022-11-20T03:19:11.062Z,99291.69
2022-11-20T03:20:11.062Z,99287.23
2022-11-20T03:21:11.064Z,99281.97
2022-11-20T03:22:11.062Z,99277.29
2022-11-20T03:23:11.061Z,99273.82
2022-11-20T03:24:11.064Z,99271.55
2022-11-20T03:25:11.064Z,99268.66
2022-11-20T03:26:18.074Z,99270.14
2022-11-20T03:27:11.101Z,99268.72
2022-11-20T03:28:11.063Z,99263.17
2022-11-20T03:29:11.079Z,99251.17
2022-11-20T03:30:11.063Z,99250.29
2022-11-20T03:31:11.062Z,99253.98
2022-11-20T03:32:11.063Z,99251.33
2022-11-20T03:33:11.060Z,99253.76
2022-11-20T03:34:11.061Z,99252.30
2022-11-20T03:35:11.074Z,99255.71
2022-11-20T03:36:11.063Z,99252.07
2022-11-20T03:37:11.064Z,99247.83
2022-11-20T03:38:11.071Z,99251.71
2022-11-20T03:39:11.075Z,99250.71
2022-11-20T03:40:11.057Z,99248.12
2022-11-20T03:41:18.072Z,99250.01
2022-11-20T03:42:15.065Z,99244.49
2022-11-20T03:43:12.061Z,99240.89
2022-11-20T03:44:11.065Z,99236.87
2022-11-20T03:45:11.064Z,99238.27
2022-11-20T03:46:11.062Z,99234.42
2022-11-20T03:47:11.064Z,99235.68
2022-11-20T03:48:11.066Z,99236.61
2022-11-20T03:49:11.061Z,99234.59
2022-11-20T03:50:11.064Z,99232.35
2022-11-20T03:51:11.066Z,99230.72
2022-11-20T03:52:11.061Z,99230.84
2022-11-20T03:53:11.063Z,99231.43
2022-11-20T03:54:11.067Z,99231.82
2022-11-20T03:55:11.069Z,99230.84
2022-11-20T03:56:11.064Z,99230.20
2022-11-20T03:57:11.066Z,99229.92
2022-11-20T03:58:11.061Z,99224.04
2022-11-20T03:59:12.066Z,99224.64
2022-11-20T04:00:11.068Z,99220.57
2022-11-20T04:01:15.109Z,99217.53
2022-11-20T04:02:11.128Z,99214.55
2022-11-20T04:03:11.073Z,99209.05
2022-11-20T04:04:11.062Z,99208.51
2022-11-20T04:05:11.067Z,99207.43
2022-11-20T04:06:15.067Z,99209.81
2022-11-20T04:07:11.149Z,99207.86
2022-11-20T04:08:11.066Z,99206.13
2022-11-20T04:09:11.073Z,99206.02
2022-11-20T04:10:11.062Z,99204.86
2022-11-20T04:11:17.065Z,99203.36
2022-11-20T04:12:11.074Z,99203.78
2022-11-20T04:13:11.063Z,99209.39
2022-11-20T04:14:15.067Z,99204.60
2022-11-20T04:15:11.069Z,99198.94
2022-11-20T04:16:11.067Z,99195.31
2022-11-20T04:17:11.062Z,99196.61
2022-11-20T04:18:11.069Z,99197.16
2022-11-20T04:19:12.067Z,99194.15
2022-11-20T04:20:11.062Z,99190.70
2022-11-20T04:21:11.068Z,99189.00
2022-11-20T04:22:11.066Z,99189.22
2022-11-20T04:23:11.063Z,99195.85
2022-11-20T04:24:11.069Z,99192.09
2022-11-20T04:25:11.067Z,99189.38
2022-11-20T04:26:11.063Z,99186.01
2022-11-20T04:27:11.070Z,99188.95
2022-11-20T04:28:11.068Z,99187.15
2022-11-20T04:29:12.063Z,99190.46
2022-11-20T04:30:11.066Z,99185.42
2022-11-20T04:31:18.083Z,99184.54
2022-11-20T04:32:11.064Z,99183.41
2022-11-20T04:33:11.068Z,99179.45
2022-11-20T04:34:12.069Z,99180.03
2022-11-20T04:35:11.065Z,99180.80
2022-11-20T04:36:20.067Z,99182.38
2022-11-20T04:37:11.078Z,99178.03
2022-11-20T04:38:11.070Z,99171.61
2022-11-20T04:39:14.069Z,99171.17
2022-11-20T04:40:11.075Z,99167.92
2022-11-20T04:41:15.064Z,99172.75
2022-11-20T04:42:15.069Z,99177.05
2022-11-20T04:43:11.071Z,99183.07
2022-11-20T04:44:11.072Z,99180.08
2022-11-20T04:45:11.064Z,99176.84
2022-11-20T04:46:11.071Z,99179.28
2022-11-20T04:47:11.068Z,99184.28
2022-11-20T04:48:11.064Z,99174.00
2022-11-20T04:49:11.079Z,99173.39
2022-11-20T04:50:11.129Z,99177.53
2022-11-20T04:51:11.072Z,99171.34
2022-11-20T04:52:11.075Z,99171.12
2022-11-20T04:53:11.069Z,99175.57
2022-11-20T04:54:11.069Z,99172.85
2022-11-20T04:55:11.077Z,99171.76
2022-11-20T04:56:11.070Z,99166.91
2022-11-20T04:57:14.380Z,99165.12
2022-11-20T04:58:11.068Z,99177.42
2022-11-20T04:59:11.069Z,99185.90
2022-11-20T05:00:11.069Z,99193.18
2022-11-20T05:01:14.270Z,99197.14
2022-11-20T05:02:11.071Z,99190.99
2022-11-20T05:03:11.068Z,99188.67
2022-11-20T05:04:11.071Z,99188.81
2022-11-20T05:05:11.078Z,99186.90
2022-11-20T05:06:11.079Z,99181.09
2022-11-20T05:07:11.120Z,99185.10
2022-11-20T05:08:11.084Z,99181.45
2022-11-20T05:09:11.067Z,99182.28
2022-11-20T05:10:11.072Z,99179.11
2022-11-20T05:11:14.076Z,99177.77
2022-11-20T05:12:11.073Z,99183.47
2022-11-20T05:13:11.067Z,99182.42
2022-11-20T05:14:11.072Z,99189.98
2022-11-20T05:15:11.072Z,99188.04
2022-11-20T05:16:14.073Z,99185.54
2022-11-20T05:17:12.068Z,99187.27
2022-11-20T05:18:11.072Z,99192.27
2022-11-20T05:19:11.069Z,99194.67
2022-11-20T05:20:11.080Z,99194.00
2022-11-20T05:21:11.071Z,99190.96
2022-11-20T05:22:11.070Z,99193.48
2022-11-20T05:23:11.070Z,99180.95
2022-11-20T05:24:11.073Z,99191.63
2022-11-20T05:25:11.071Z,99192.08
2022-11-20T05:26:13.074Z,99194.41
2022-11-20T05:27:11.071Z,99188.10
2022-11-20T05:28:11.070Z,99193.66
2022-11-20T05:29:12.074Z,99193.16
2022-11-20T05:30:11.072Z,99195.40
2022-11-20T05:31:14.076Z,99193.23
2022-11-20T05:32:12.075Z,99195.77
2022-11-20T05:33:11.079Z,99195.79
2022-11-20T05:34:11.075Z,99197.42
2022-11-20T05:35:11.072Z,99202.14
2022-11-20T05:36:11.079Z,99204.88
2022-11-20T05:37:11.069Z,99201.66
2022-11-20T05:38:11.073Z,99206.50
2022-11-20T05:39:11.078Z,99206.34
2022-11-20T05:40:11.074Z,99208.14
2022-11-20T05:41:14.071Z,99206.98
2022-11-20T05:42:15.075Z,99207.65
2022-11-20T05:43:11.074Z,99207.48
2022-11-20T05:44:12.094Z,99207.91
2022-11-20T05:45:11.072Z,99206.39
2022-11-20T05:46:11.076Z,99206.01
2022-11-20T05:47:11.072Z,99205.95
2022-11-20T05:48:11.065Z,99208.35
2022-11-20T05:49:11.067Z,99210.04
2022-11-20T05:50:11.066Z,99209.06
2022-11-20T05:51:11.066Z,99212.54
2022-11-20T05:52:11.068Z,99206.66
2022-11-20T05:53:11.065Z,99208.29
2022-11-20T05:54:11.065Z,99207.81
2022-11-20T05:55:11.065Z,99210.04
2022-11-20T05:56:12.067Z,99212.05
2022-11-20T05:57:11.065Z,99215.36
2022-11-20T05:58:11.071Z,99214.66
2022-11-20T05:59:11.067Z,99216.50
2022-11-20T06:00:11.067Z,99215.26
2022-11-20T06:01:15.069Z,99216.35
2022-11-20T06:02:11.065Z,99216.28
2022-11-20T06:03:11.066Z,99218.30
2022-11-20T06:04:11.075Z,99217.64
2022-11-20T06:05:11.064Z,99214.92
2022-11-20T06:06:11.069Z,99214.07
2022-11-20T06:07:11.113Z,99207.91
2022-11-20T06:08:11.067Z,99217.80
2022-11-20T06:09:11.071Z,99219.82
2022-11-20T06:10:11.078Z,99224.48
2022-11-20T06:11:11.067Z,99225.74
2022-11-20T06:12:11.062Z,99224.21
2022-11-20T06:13:11.068Z,99229.54
2022-11-20T06:14:11.070Z,99229.86
2022-11-20T06:15:11.066Z,99229.55
2022-11-20T06:16:11.086Z,99230.31
2022-11-20T06:17:11.070Z,99228.46
2022-11-20T06:18:11.068Z,99227.74
2022-11-20T06:19:11.069Z,99228.83
2022-11-20T06:20:11.070Z,99229.22
2022-11-20T06:21:11.066Z,99234.70
2022-11-20T06:22:11.067Z,99231.81
2022-11-20T06:23:11.071Z,99231.22
2022-11-20T06:24:11.066Z,99235.58
2022-11-20T06:25:11.073Z,99229.64
2022-11-20T06:26:11.076Z,99232.57
2022-11-20T06:27:11.067Z,99231.59
2022-11-20T06:28:11.069Z,99239.48
2022-11-20T06:29:11.076Z,99234.96
2022-11-20T06:30:11.070Z,99236.06
2022-11-20T06:31:11.072Z,99234.42
2022-11-20T06:32:11.077Z,99240.88
2022-11-20T06:33:11.066Z,99239.36
2022-11-20T06:34:11.068Z,99241.04
2022-11-20T06:35:11.077Z,99237.13
2022-11-20T06:36:11.268Z,99242.46
2022-11-20T06:37:11.071Z,99241.43
2022-11-20T06:38:11.076Z,99243.88
2022-11-20T06:39:11.069Z,99243.15
2022-11-20T06:40:11.071Z,99239.02
2022-11-20T06:41:12.078Z,99235.10
2022-11-20T06:42:11.071Z,99237.28
2022-11-20T06:43:11.073Z,99234.40
2022-11-20T06:44:11.077Z,99235.82
2022-11-20T06:45:11.075Z,99235.76
2022-11-20T06:46:11.074Z,99231.10
2022-11-20T06:47:11.078Z,99230.65
2022-11-20T06:48:11.069Z,99232.34
2022-11-20T06:49:11.070Z,99237.11
2022-11-20T06:50:11.079Z,99234.29
2022-11-20T06:51:11.073Z,99240.42
2022-11-20T06:52:11.069Z,99236.41
2022-11-20T06:53:11.079Z,99237.94
2022-11-20T06:54:11.071Z,99239.95
2022-11-20T06:55:11.071Z,99239.89
2022-11-20T06:56:11.077Z,99243.48
2022-11-20T06:57:11.071Z,99246.90
2022-11-20T06:58:11.069Z,99247.39
2022-11-20T06:59:11.074Z,99247.93
2022-11-20T07:00:11.072Z,99249.39
2022-11-20T07:01:12.130Z,99251.24
2022-11-20T07:02:13.078Z,99250.48
2022-11-20T07:03:11.072Z,99250.10
2022-11-20T07:04:11.071Z,99250.75
2022-11-20T07:05:11.072Z,99248.14
2022-11-20T07:06:11.076Z,99249.51
2022-11-20T07:07:11.243Z,99251.58
2022-11-20T07:08:11.071Z,99254.44
2022-11-20T07:09:12.854Z,99257.29
2022-11-20T07:10:11.101Z,99257.22
2022-11-20T07:11:12.072Z,99262.31
2022-11-20T07:12:11.075Z,99262.27
2022-11-20T07:13:11.073Z,99263.91
2022-11-20T07:14:11.071Z,99263.79
2022-11-20T07:15:11.081Z,99264.33
2022-11-20T07:16:11.071Z,99261.77
2022-11-20T07:17:11.073Z,99260.38
2022-11-20T07:18:11.084Z,99259.12
2022-11-20T07:19:11.070Z,99261.73
2022-11-20T07:20:11.074Z,99258.90
2022-11-20T07:21:12.081Z,99264.07
2022-11-20T07:22:11.072Z,99261.92
2022-11-20T07:23:11.072Z,99261.39
2022-11-20T07:24:11.077Z,99262.60
2022-11-20T07:25:11.075Z,99263.50
2022-11-20T07:26:11.070Z,99261.44
2022-11-20T07:27:11.077Z,99261.87
2022-11-20T07:28:11.075Z,99264.03
2022-11-20T07:29:11.073Z,99262.75
2022-11-20T07:30:11.073Z,99261.88
2022-11-20T07:31:15.957Z,99263.57
2022-11-20T07:32:13.771Z,99263.29
2022-11-20T07:33:11.070Z,99270.78
2022-11-20T07:34:11.078Z,99265.89
2022-11-20T07:35:11.076Z,99266.22
2022-11-20T07:36:11.070Z,99269.96
2022-11-20T07:37:11.079Z,99275.45
2022-11-20T07:38:11.074Z,99276.98
2022-11-20T07:39:11.071Z,99281.58
2022-11-20T07:40:11.079Z,99282.93
2022-11-20T07:41:11.077Z,99286.79
2022-11-20T07:42:11.073Z,99289.62
2022-11-20T07:43:11.075Z,99290.61
2022-11-20T07:44:11.074Z,99290.91
2022-11-20T07:45:11.080Z,99287.18
2022-11-20T07:46:11.076Z,99288.33
2022-11-20T07:47:11.082Z,99284.08
2022-11-20T07:48:11.075Z,99285.32
2022-11-20T07:49:11.076Z,99290.06
2022-11-20T07:50:11.076Z,99285.56
2022-11-20T07:51:11.074Z,99287.89
2022-11-20T07:52:11.075Z,99282.77
2022-11-20T07:53:11.083Z,99283.75
2022-11-20T07:54:11.075Z,99279.57
2022-11-20T07:55:11.077Z,99281.42
2022-11-20T07:56:11.083Z,99280.44
2022-11-20T07:57:11.075Z,99277.12
2022-11-20T07:58:11.076Z,99279.08
2022-11-20T07:59:11.082Z,99278.80
2022-11-20T08:00:11.080Z,99279.34
2022-11-20T08:01:11.150Z,99277.29
2022-11-20T08:02:12.078Z,99278.53
2022-11-20T08:03:11.076Z,99280.23
2022-11-20T08:04:11.076Z,99281.31
2022-11-20T08:05:13.078Z,99282.95
2022-11-20T08:06:11.080Z,99285.92
2022-11-20T08:07:11.088Z,99287.82
2022-11-20T08:08:11.080Z,99289.83
2022-11-20T08:09:11.084Z,99293.46
2022-11-20T08:10:11.076Z,99295.68
2022-11-20T08:11:15.079Z,99294.55
2022-11-20T08:12:19.082Z,99291.73
2022-11-20T08:13:15.085Z,99291.08
2022-11-20T08:14:15.077Z,99289.01
2022-11-20T08:15:13.274Z,99290.76
2022-11-20T08:16:11.080Z,99290.66
2022-11-20T08:17:11.088Z,99289.36
2022-11-20T08:18:30.461Z,99293.51
2022-11-20T08:19:13.057Z,99294.64
2022-11-20T08:20:11.080Z,99297.48
2022-11-20T08:21:11.143Z,99297.26
2022-11-20T08:22:11.075Z,99299.55
2022-11-20T08:23:11.081Z,99295.64
2022-11-20T08:24:11.078Z,99296.68
2022-11-20T08:25:11.077Z,99297.88
2022-11-20T08:26:11.079Z,99296.74
2022-11-20T08:27:11.084Z,99301.43
2022-11-20T08:28:20.353Z,99303.21
2022-11-20T08:29:13.054Z,99304.25
2022-11-20T08:30:11.086Z,99306.21
2022-11-20T08:31:11.076Z,99306.10
2022-11-20T08:32:11.079Z,99304.68
2022-11-20T08:33:11.087Z,99304.70
2022-11-20T08:34:14.938Z,99304.75
2022-11-20T08:35:13.074Z,99304.10
2022-11-20T08:36:11.077Z,99301.97
2022-11-20T08:37:11.079Z,99298.55
2022-11-20T08:38:11.079Z,99298.89
2022-11-20T08:39:12.083Z,99305.41
2022-11-20T08:40:18.326Z,99306.34
2022-11-20T08:41:17.060Z,99305.41
2022-11-20T08:42:11.076Z,99307.48
2022-11-20T08:43:11.087Z,99312.04
2022-11-20T08:44:11.083Z,99309.32
2022-11-20T08:45:11.078Z,99311.28
2022-11-20T08:46:11.082Z,99313.72
2022-11-20T08:47:11.082Z,99320.20
2022-11-20T08:48:11.055Z,99319.27
2022-11-20T08:49:11.063Z,99321.23
2022-11-20T08:50:11.060Z,99324.86
2022-11-20T08:51:11.055Z,99323.20
2022-11-20T08:52:11.062Z,99325.32
2022-11-20T08:53:11.060Z,99321.45
2022-11-20T08:54:11.059Z,99325.42
2022-11-20T08:55:11.060Z,99321.19
2022-11-20T08:56:11.058Z,99323.07
2022-11-20T08:57:11.061Z,99326.61
2022-11-20T08:58:11.058Z,99327.43
2022-11-20T08:59:27.021Z,99332.48
2022-11-20T09:00:13.376Z,99333.09
2022-11-20T09:01:11.068Z,99340.09
2022-11-20T09:02:11.068Z,99341.17
2022-11-20T09:03:11.061Z,99338.45
2022-11-20T09:04:11.061Z,99338.03
2022-11-20T09:05:11.067Z,99338.14
2022-11-20T09:06:11.061Z,99341.52
2022-11-20T09:07:11.119Z,99342.62
2022-11-20T09:08:11.062Z,99346.64
2022-11-20T09:09:11.061Z,99342.63
2022-11-20T09:10:23.576Z,99341.76
2022-11-20T09:11:13.041Z,99343.40
2022-11-20T09:12:11.061Z,99344.23
2022-11-20T09:13:11.058Z,99338.95
2022-11-20T09:14:11.065Z,99339.55
2022-11-20T09:15:11.063Z,99338.24
2022-11-20T09:16:11.056Z,99339.45
2022-11-20T09:17:12.065Z,99337.54
2022-11-20T09:18:11.061Z,99334.23
2022-11-20T09:19:34.568Z,99337.54
2022-11-20T09:20:13.046Z,99339.13
2022-11-20T09:21:14.126Z,99331.95
2022-11-20T09:22:11.062Z,99328.48
2022-11-20T09:23:11.057Z,99329.23
2022-11-20T09:24:11.068Z,99324.45
2022-11-20T09:25:11.062Z,99322.45
2022-11-20T09:26:14.069Z,99324.29
2022-11-20T09:27:11.060Z,99322.27
2022-11-20T09:28:11.064Z,99327.94
2022-11-20T09:29:11.059Z,99324.40
2022-11-20T09:30:11.062Z,99326.45
2022-11-20T09:31:15.065Z,99324.99
2022-11-20T09:32:11.061Z,99326.19
2022-11-20T09:33:11.065Z,99326.57
2022-11-20T09:34:11.071Z,99327.48
2022-11-20T09:35:11.063Z,99326.35
2022-11-20T09:36:11.060Z,99326.77
2022-11-20T09:37:11.064Z,99316.21
2022-11-20T09:38:11.063Z,99319.13
2022-11-20T09:39:11.059Z,99317.54
2022-11-20T09:40:19.070Z,99318.95
2022-11-20T09:41:19.063Z,99317.80
2022-11-20T09:42:19.060Z,99320.03
2022-11-20T09:43:19.064Z,99317.19
2022-11-20T09:44:21.066Z,99311.88
2022-11-20T09:45:19.075Z,99304.91
2022-11-20T09:46:17.090Z,99302.16
2022-11-20T09:47:19.063Z,99306.41
2022-11-20T09:48:19.071Z,99307.09
2022-11-20T09:49:19.845Z,99311.56
2022-11-20T09:50:19.116Z,99308.95
2022-11-20T09:51:19.062Z,99311.10
2022-11-20T09:52:19.073Z,99310.77
2022-11-20T09:53:19.066Z,99309.88
2022-11-20T09:54:18.072Z,99309.93
2022-11-20T09:55:13.065Z,99311.71
2022-11-20T09:56:11.061Z,99310.77
2022-11-20T09:57:15.063Z,99312.34
2022-11-20T09:58:19.064Z,99308.88
2022-11-20T09:59:18.062Z,99312.32
2022-11-20T10:00:13.065Z,99315.03
2022-11-20T10:01:17.103Z,99312.96
2022-11-20T10:02:19.070Z,99313.65
2022-11-20T10:03:17.063Z,99316.70
2022-11-20T10:04:17.061Z,99318.72
2022-11-20T10:05:19.069Z,99318.05
2022-11-20T10:06:15.073Z,99320.81
2022-11-20T10:07:32.599Z,99314.18
2022-11-20T10:08:21.818Z,99313.96
2022-11-20T10:09:21.441Z,99314.38
2022-11-20T10:10:15.067Z,99314.23
2022-11-20T10:11:19.077Z,99318.39
2022-11-20T10:12:19.064Z,99320.46
2022-11-20T10:13:21.066Z,99321.14
2022-11-20T10:14:21.071Z,99319.03
2022-11-20T10:15:21.087Z,99319.95
2022-11-20T10:16:19.069Z,99319.92
2022-11-20T10:17:19.065Z,99318.27
2022-11-20T10:18:19.065Z,99317.39
2022-11-20T10:19:19.317Z,99319.94
2022-11-20T10:20:19.073Z,99319.66
2022-11-20T10:21:23.072Z,99318.30
2022-11-20T10:22:19.070Z,99315.23
2022-11-20T10:23:24.270Z,99310.63
2022-11-20T10:24:21.051Z,99311.65
2022-11-20T10:25:19.067Z,99312.83
2022-11-20T10:26:19.074Z,99309.91
2022-11-20T10:27:19.067Z,99310.11
2022-11-20T10:28:19.063Z,99306.60
2022-11-20T10:29:21.086Z,99305.05
2022-11-20T10:30:12.067Z,99297.54
2022-11-20T10:31:21.069Z,99302.89
2022-11-20T10:32:18.068Z,99294.96
2022-11-20T10:33:17.068Z,99304.14
2022-11-20T10:34:22.690Z,99303.81
2022-11-20T10:35:20.071Z,99305.21
2022-11-20T10:36:19.069Z,99305.46
2022-11-20T10:37:22.065Z,99305.77
2022-11-20T10:38:19.066Z,99308.62
2022-11-20T10:39:19.492Z,99312.63
2022-11-20T10:40:22.077Z,99318.91
2022-11-20T10:41:23.071Z,99317.03
2022-11-20T10:42:17.069Z,99315.67
2022-11-20T10:43:22.066Z,99319.30
2022-11-20T10:44:18.065Z,99314.09
2022-11-20T10:45:19.069Z,99316.74
2022-11-20T10:46:19.077Z,99312.78
2022-11-20T10:47:15.070Z,99316.73
2022-11-20T10:48:19.067Z,99316.54
2022-11-20T10:49:19.332Z,99318.12
2022-11-20T10:50:18.996Z,99320.03
2022-11-20T10:51:21.046Z,99323.55
2022-11-20T10:52:19.068Z,99321.10
2022-11-20T10:53:19.070Z,99321.64
2022-11-20T10:54:21.072Z,99320.41
2022-11-20T10:55:21.082Z,99319.13
2022-11-20T10:56:21.070Z,99323.17
2022-11-20T10:57:19.069Z,99323.91
2022-11-20T10:58:19.066Z,99327.34
2022-11-20T10:59:19.172Z,99321.99
2022-11-20T11:00:12.078Z,99323.20
2022-11-20T11:01:19.361Z,99318.89
2022-11-20T11:02:19.083Z,99315.59
2022-11-20T11:03:19.076Z,99313.82
2022-11-20T11:04:19.071Z,99314.17
2022-11-20T11:05:21.069Z,99313.76
2022-11-20T11:06:18.071Z,99310.57
2022-11-20T11:07:19.141Z,99311.61
2022-11-20T11:08:17.077Z,99310.24
2022-11-20T11:09:19.071Z,99307.70
2022-11-20T11:10:20.073Z,99298.59
2022-11-20T11:11:19.186Z,99299.37
2022-11-20T11:12:11.072Z,99293.44
2022-11-20T11:13:15.073Z,99297.32
2022-11-20T11:14:14.074Z,99299.20
2022-11-20T11:15:19.074Z,99301.71
2022-11-20T11:16:19.082Z,99302.52
2022-11-20T11:17:19.073Z,99303.14
2022-11-20T11:18:13.071Z,99303.55
2022-11-20T11:19:15.077Z,99297.65
2022-11-20T11:20:21.081Z,99292.92
2022-11-20T11:21:11.080Z,99292.84
2022-11-20T11:22:17.070Z,99284.88
2022-11-20T11:23:19.072Z,99284.06
2022-11-20T11:24:40.966Z,99276.75
2022-11-20T11:25:18.099Z,99273.85
2022-11-20T11:26:19.072Z,99270.34
2022-11-20T11:27:17.306Z,99264.48
2022-11-20T11:28:19.073Z,99262.58
2022-11-20T11:29:18.081Z,99261.41
2022-11-20T11:30:15.079Z,99261.75
2022-11-20T11:31:11.072Z,99264.80
2022-11-20T11:32:14.075Z,99271.75
2022-11-20T11:33:17.074Z,99269.51
2022-11-20T11:34:14.072Z,99270.00
2022-11-20T11:35:19.075Z,99274.88
2022-11-20T11:36:19.076Z,99275.43
2022-11-20T11:37:19.075Z,99278.09
2022-11-20T11:38:18.072Z,99269.39
2022-11-20T11:39:18.088Z,99272.01
2022-11-20T11:40:25.056Z,99265.79
2022-11-20T11:41:19.190Z,99262.98
2022-11-20T11:42:17.077Z,99263.82
2022-11-20T11:43:19.075Z,99262.50
2022-11-20T11:44:23.075Z,99262.50